Time;durP1;ratioP1;P1;durP2;ratioP2;P2;SDS_P1;SDS_P2;PMS_P1;PMS_P2;Temp;Humidity;BMP_temperature;BMP_pressure;BME280_temperature;BME280_humidity;BME280_pressure;Samples;Min_cycle;Max_cycle;Signal;HPM_P1;HPM_P2
2023/11/13 00:04:57;;;;;;;1.10;0.50;;;;;;;6.57;65.07;150323.34;10380413;28;20041;-73
2023/11/13 00:09:59;;;;;;;0.40;0.40;;;;;;;6.56;65.21;150320.78;10380452;28;20046;-73
2023/11/13 00:15:03;;;;;;;0.50;0.50;;;;;;;6.44;65.27;150288.59;10379274;28;20413;-73
2023/11/13 00:20:06;;;;;;;0.77;0.47;;;;;;;6.34;66.32;150264.16;10377906;28;20575;-73
2023/11/13 00:25:08;;;;;;;0.82;0.40;;;;;;;6.40;65.54;150279.56;10381084;28;20461;-73
2023/11/13 00:30:11;;;;;;;1.40;0.60;;;;;;;6.45;64.92;150292.44;10378887;28;20132;-73
2023/11/13 00:35:13;;;;;;;0.65;0.40;;;;;;;6.34;65.13;150262.88;10377733;28;20042;-73
2023/11/13 00:40:16;;;;;;;1.30;0.60;;;;;;;6.23;65.78;150235.81;10376542;28;20064;-73
2023/11/13 00:45:18;;;;;;;1.02;0.63;;;;;;;6.22;66.41;150233.25;10377418;28;20572;-73
2023/11/13 00:50:21;;;;;;;1.67;0.35;;;;;;;6.15;66.39;150215.22;10377095;28;20062;-73
2023/11/13 00:55:23;;;;;;;0.47;0.45;;;;;;;6.08;67.00;150198.53;10377456;28;20041;-73
2023/11/13 01:00:25;;;;;;;0.52;0.40;;;;;;;6.05;67.06;150192.06;10378781;28;20045;-73
2023/11/13 01:05:27;;;;;;;0.88;0.60;;;;;;;5.95;67.03;150165.06;10375821;28;20073;-72
2023/11/13 01:10:29;;;;;;;0.25;0.25;;;;;;;5.82;68.13;150132.84;10376632;28;20080;-73
2023/11/13 01:15:30;;;;;;;0.70;0.50;;;;;;;5.69;68.90;150100.69;10374766;28;20069;-73
2023/11/13 01:20:33;;;;;;;0.30;0.30;;;;;;;5.68;69.09;150098.13;10376690;28;20581;-72
2023/11/13 01:25:34;;;;;;;0.50;0.45;;;;;;;5.67;68.85;150094.28;10377409;28;20406;-72
2023/11/13 01:30:36;;;;;;;1.15;1.05;;;;;;;5.72;68.83;150108.41;10377313;28;20050;-72
2023/11/13 01:35:38;;;;;;;0.43;0.43;;;;;;;5.59;70.23;150073.69;10389512;23;20046;-74
2023/11/13 01:40:41;;;;;;;0.35;0.28;;;;;;;5.57;69.83;150071.09;10374862;28;20077;-74
2023/11/13 01:45:43;;;;;;;0.65;0.40;;;;;;;5.61;69.99;150078.81;10376644;28;20460;-74
2023/11/13 01:50:45;;;;;;;0.52;0.28;;;;;;;5.54;70.28;150062.13;10376781;28;20045;-74
2023/11/13 01:55:48;;;;;;;0.68;0.32;;;;;;;5.63;69.50;150085.28;10374625;28;20060;-74
2023/11/13 02:00:50;;;;;;;0.75;0.40;;;;;;;5.81;68.81;150131.56;10378041;28;20567;-74
2023/11/13 02:05:52;;;;;;;1.15;0.45;;;;;;;5.68;69.25;150098.13;10384343;28;20042;-74
2023/11/13 02:10:54;;;;;;;1.25;0.40;;;;;;;5.45;71.71;150040.25;10381804;28;20052;-74
2023/11/13 02:15:56;;;;;;;0.40;0.38;;;;;;;5.42;71.49;150031.25;10381798;28;20096;-75
2023/11/13 02:20:58;;;;;;;0.28;0.28;;;;;;;5.33;72.64;150009.38;10381540;28;20065;-73
2023/11/13 02:26:06;;;;;;;0.40;0.38;;;;;;;5.24;73.94;149987.53;10381555;28;20493;-74
2023/11/13 02:31:08;;;;;;;0.93;0.25;;;;;;;5.00;75.24;149927.13;10383244;28;20149;-74
2023/11/13 02:36:19;;;;;;;0.47;0.30;;;;;;;5.07;75.40;149943.81;10381503;28;20133;-74
2023/11/13 02:41:21;;;;;;;0.40;0.40;;;;;;;4.91;76.90;149903.94;10381095;28;20088;-74
2023/11/13 02:46:23;;;;;;;0.43;0.25;;;;;;;5.07;76.57;149943.81;10381851;28;20038;-74
2023/11/13 02:51:26;;;;;;;0.82;0.43;;;;;;;4.92;77.76;149906.53;10380730;28;20078;-74
2023/11/13 02:56:28;;;;;;;0.47;0.43;;;;;;;4.81;79.30;149878.25;10363512;28;20097;-74
2023/11/13 03:01:30;;;;;;;0.98;0.50;;;;;;;4.72;79.78;149856.38;10379907;28;20137;-74
2023/11/13 03:06:32;;;;;;;0.93;0.60;;;;;;;4.91;78.68;149902.66;10380759;28;20204;-73
2023/11/13 03:11:34;;;;;;;0.68;0.50;;;;;;;5.11;78.55;149952.81;10381314;28;20482;-73
2023/11/13 03:16:36;;;;;;;0.60;0.60;;;;;;;4.74;81.81;149860.28;10380754;28;20497;-74
2023/11/13 03:21:38;;;;;;;1.55;0.50;;;;;;;4.58;82.34;149819.13;10379156;28;20473;-74
2023/11/13 03:26:40;;;;;;;0.80;0.52;;;;;;;5.31;79.59;150005.53;10379983;28;20415;-74
2023/11/13 03:31:42;;;;;;;0.68;0.38;;;;;;;4.89;82.68;149898.81;10378797;28;20046;-74
2023/11/13 03:36:44;;;;;;;0.30;0.28;;;;;;;4.86;82.17;149889.81;10378180;28;20500;-73
2023/11/13 03:41:46;;;;;;;0.63;0.40;;;;;;;4.84;83.43;149885.97;10378150;28;20128;-74
2023/11/13 03:46:48;;;;;;;1.50;0.50;;;;;;;4.78;82.84;149871.84;10378361;28;20132;-74
2023/11/13 03:51:50;;;;;;;1.75;0.50;;;;;;;4.63;84.30;149831.97;10378666;28;20116;-74
2023/11/13 03:56:52;;;;;;;0.68;0.32;;;;;;;4.44;86.26;149784.44;10378515;28;20042;-74
2023/11/13 04:01:53;;;;;;;1.23;0.63;;;;;;;4.54;85.77;149811.41;10378310;28;20121;-74
2023/11/13 04:06:55;;;;;;;0.50;0.50;;;;;;;4.88;82.33;149894.97;10379682;28;20034;-73
2023/11/13 04:11:58;;;;;;;1.20;0.60;;;;;;;4.81;84.17;149879.53;10378146;28;20452;-74
2023/11/13 04:17:00;;;;;;;1.20;0.47;;;;;;;4.81;84.04;149878.25;10380678;28;20442;-74
2023/11/13 04:22:02;;;;;;;1.60;0.60;;;;;;;4.87;84.20;149893.69;10376750;28;20097;-74
2023/11/13 04:27:04;;;;;;;0.52;0.52;;;;;;;4.60;85.86;149824.25;10376979;28;20058;-74
2023/11/13 04:32:06;;;;;;;1.52;0.50;;;;;;;4.55;85.91;149812.69;10376635;28;20077;-73
2023/11/13 04:37:08;;;;;;;0.73;0.70;;;;;;;4.34;86.63;149758.72;10376088;28;20045;-74
2023/11/13 04:42:10;;;;;;;1.88;0.60;;;;;;;4.18;87.61;149720.19;10378779;28;20046;-73
2023/11/13 04:47:12;;;;;;;0.70;0.68;;;;;;;4.01;88.38;149677.78;10377048;28;20048;-74
2023/11/13 04:52:14;;;;;;;2.45;0.70;;;;;;;3.77;89.80;149616.16;10378699;28;20101;-75
2023/11/13 04:57:16;;;;;;;3.28;1.10;;;;;;;3.75;90.41;149611.00;10376515;28;20125;-75
2023/11/13 05:02:18;;;;;;;1.92;0.70;;;;;;;3.89;88.97;149646.97;10377588;28;20386;-74
2023/11/13 05:07:20;;;;;;;1.52;0.60;;;;;;;3.76;90.55;149613.56;10376356;28;20037;-74
2023/11/13 05:12:22;;;;;;;1.20;0.77;;;;;;;3.47;93.30;149540.41;10376917;28;20449;-75
2023/11/13 05:17:24;;;;;;;0.80;0.68;;;;;;;3.43;93.45;149531.41;10374823;28;20038;-73
2023/11/13 05:22:26;;;;;;;1.05;0.52;;;;;;;3.35;94.36;149510.84;10375798;28;20057;-73
2023/11/13 05:27:28;;;;;;;0.77;0.50;;;;;;;3.36;94.10;149513.41;10376097;28;20033;-73
2023/11/13 05:32:29;;;;;;;2.28;0.80;;;;;;;3.61;93.70;149576.34;10375724;28;20073;-73
2023/11/13 05:37:31;;;;;;;1.15;0.70;;;;;;;3.65;92.43;149585.34;10373530;28;20049;-74
2023/11/13 05:42:36;;;;;;;1.30;0.80;;;;;;;3.56;92.86;149562.22;10374293;28;20493;-73
2023/11/13 05:47:38;;;;;;;1.40;0.90;;;;;;;3.52;92.58;149553.22;10376029;28;20438;-74
2023/11/13 05:52:39;;;;;;;0.90;0.85;;;;;;;3.40;92.77;149523.69;10373583;28;20069;-73
2023/11/13 05:57:42;;;;;;;2.70;0.77;;;;;;;3.22;94.29;149477.47;10374965;28;20042;-73
2023/11/13 06:02:48;;;;;;;1.30;0.88;;;;;;;3.09;95.33;149444.09;10374803;28;20108;-75
2023/11/13 06:07:50;;;;;;;1.08;0.70;;;;;;;2.96;96.75;149413.28;10375351;28;20045;-74
2023/11/13 06:12:51;;;;;;;0.85;0.80;;;;;;;2.75;97.85;149360.72;10374563;28;20046;-74
2023/11/13 06:17:53;;;;;;;0.75;0.70;;;;;;;2.59;99.32;149318.34;10374814;28;20073;-74
2023/11/13 06:22:55;;;;;;;1.10;0.80;;;;;;;2.56;100.00;149310.66;10373548;28;20050;-74
2023/11/13 06:27:57;;;;;;;1.73;0.95;;;;;;;2.86;99.66;149387.63;10373458;28;20097;-74
2023/11/13 06:32:59;;;;;;;1.75;0.98;;;;;;;2.76;99.62;149363.25;10375119;28;20046;-74
2023/11/13 06:38:00;;;;;;;1.30;1.10;;;;;;;2.69;100.00;149345.28;10374854;28;20042;-74
2023/11/13 06:43:02;;;;;;;2.13;1.15;;;;;;;2.67;100.00;149340.16;10373813;28;20117;-72
2023/11/13 06:48:04;;;;;;;4.35;1.30;;;;;;;2.94;100.00;149406.91;10376708;28;20485;-73
2023/11/13 06:53:07;;;;;;;1.48;1.00;;;;;;;2.98;99.93;149417.16;10382340;28;20073;-73
2023/11/13 06:58:10;;;;;;;2.33;1.10;;;;;;;2.88;99.56;149392.78;10379928;28;20078;-74
2023/11/13 07:03:13;;;;;;;1.83;0.95;;;;;;;2.83;100.00;149379.94;10381963;28;20467;-74
2023/11/13 07:08:15;;;;;;;1.38;1.00;;;;;;;2.83;100.00;149379.94;10383276;28;20046;-73
2023/11/13 07:13:18;;;;;;;1.95;1.23;;;;;;;2.96;100.00;149412.00;10381113;28;20141;-73
2023/11/13 07:18:19;;;;;;;2.67;1.30;;;;;;;2.98;100.00;149417.16;10380942;28;20046;-73
2023/11/13 07:23:21;;;;;;;5.57;1.65;;;;;;;3.15;97.72;149460.81;10379569;28;20084;-73
2023/11/13 07:28:23;;;;;;;2.72;1.55;;;;;;;3.10;99.02;149448.00;10380136;28;20037;-73
2023/11/13 07:33:25;;;;;;;1.80;1.23;;;;;;;3.24;98.71;149482.63;10379710;28;20046;-73
2023/11/13 07:38:27;;;;;;;4.88;1.52;;;;;;;3.34;98.19;149508.28;10379625;28;20042;-72
2023/11/13 07:43:28;;;;;;;3.17;1.30;;;;;;;3.48;96.88;149542.97;10379429;28;20049;-72
2023/11/13 07:48:30;;;;;;;2.03;1.20;;;;;;;3.72;95.50;149604.63;10380782;28;20117;-72
2023/11/13 07:53:36;;;;;;;1.60;1.30;;;;;;;3.97;91.62;149667.50;10380840;28;20038;-71
2023/11/13 07:58:38;;;;;;;2.00;1.50;;;;;;;4.02;91.48;149679.06;10379979;28;20042;-71
2023/11/13 08:03:39;;;;;;;2.13;1.10;;;;;;;4.17;87.94;149716.34;10377416;28;20056;-71
2023/11/13 08:08:41;;;;;;;1.60;1.00;;;;;;;4.21;89.36;149727.91;10378791;28;20046;-71
2023/11/13 08:13:44;;;;;;;2.55;1.40;;;;;;;4.17;87.17;149716.34;10378386;28;20429;-72
2023/11/13 08:18:46;;;;;;;2.35;1.17;;;;;;;4.38;87.64;149769.00;10376599;28;20048;-71
2023/11/13 08:23:47;;;;;;;6.78;1.77;;;;;;;4.73;85.38;149858.94;10379105;28;20061;-72
2023/11/13 08:28:49;;;;;;;2.15;1.23;;;;;;;5.07;81.69;149943.81;10376718;28;20046;-71
2023/11/13 08:33:51;;;;;;;1.52;0.80;;;;;;;5.02;82.80;149930.97;10377619;28;20065;-71
2023/11/13 08:38:53;;;;;;;2.97;1.10;;;;;;;5.35;79.77;150014.50;10377791;28;20038;-71
2023/11/13 08:43:55;;;;;;;1.20;0.70;;;;;;;5.48;79.14;150046.66;10378304;28;20111;-71
2023/11/13 08:48:57;;;;;;;1.60;0.82;;;;;;;5.66;76.74;150092.94;10377856;28;20049;-71
2023/11/13 08:54:04;;;;;;;1.33;0.80;;;;;;;5.35;77.31;150014.50;10379624;28;20401;-72
2023/11/13 08:59:09;;;;;;;2.20;1.48;;;;;;;5.32;78.74;150006.81;10379933;28;20060;-72
2023/11/13 09:04:11;;;;;;;2.92;1.80;;;;;;;5.69;77.68;150100.69;10376921;28;20054;-71
2023/11/13 09:09:13;;;;;;;3.83;2.65;;;;;;;5.82;78.46;150134.13;10375499;28;20042;-71
2023/11/13 09:14:21;;;;;;;5.97;3.67;;;;;;;6.10;78.79;150202.34;10376158;28;20076;-72
2023/11/13 09:19:25;;;;;;;5.43;4.78;;;;;;;6.48;78.88;150298.91;10376953;28;20084;-70
2023/11/13 09:24:28;;;;;;;6.45;5.07;;;;;;;6.37;78.52;150271.84;10376305;28;20088;-73
2023/11/13 09:29:29;;;;;;;6.40;5.60;;;;;;;6.41;79.56;150280.84;10376957;28;20042;-71
2023/11/13 09:34:31;;;;;;;8.32;5.90;;;;;;;6.48;81.13;150298.91;10376116;28;20041;-72
2023/11/13 09:39:38;;;;;;;6.65;4.95;;;;;;;6.85;78.54;150392.84;10375012;28;20050;-71
2023/11/13 09:44:43;;;;;;;6.50;5.40;;;;;;;6.69;79.69;150352.97;10374810;28;20042;-72
2023/11/13 09:50:15;;;;;;;8.57;5.15;;;;;;;6.56;81.98;150320.78;10374575;28;20405;-72
2023/11/13 09:55:20;;;;;;;5.78;5.00;;;;;;;6.67;82.30;150346.50;10375179;28;20129;-71
2023/11/13 10:00:24;;;;;;;6.40;5.80;;;;;;;7.07;81.27;150449.50;10374766;28;20041;-72
2023/11/13 10:05:29;;;;;;;7.65;5.82;;;;;;;7.12;80.56;150461.06;10357021;28;20046;-72
2023/11/13 10:10:30;;;;;;;7.38;5.07;;;;;;;7.25;80.56;150494.56;10373282;28;20073;-72
2023/11/13 10:15:36;;;;;;;6.28;5.13;;;;;;;7.78;77.74;150627.25;10374077;28;20046;-72
2023/11/13 10:20:46;;;;;;;8.75;5.78;;;;;;;7.84;76.45;150644.00;10374627;28;20045;-72
2023/11/13 10:25:53;;;;;;;6.40;5.43;;;;;;;7.91;77.91;150660.75;10383299;28;20046;-72
2023/11/13 10:30:58;;;;;;;7.60;5.78;;;;;;;8.21;75.45;150736.78;10381782;28;20057;-71
2023/11/13 10:36:13;;;;;;;6.40;5.35;;;;;;;8.19;76.92;150730.31;10382368;28;20414;-71
2023/11/13 10:41:29;;;;;;;5.60;4.97;;;;;;;8.47;73.76;150802.56;10379814;28;20475;-72
2023/11/13 10:46:36;;;;;;;4.95;4.45;;;;;;;8.50;72.98;150809.00;10380968;28;20398;-72
2023/11/13 10:51:40;;;;;;;;;;;;;;;8.53;75.26;150816.75;10382650;28;20056;-72
2023/11/13 10:56:49;;;;;;;5.18;4.68;;;;;;;8.38;76.52;150778.09;10381103;28;19921;-72
2023/11/13 11:01:56;;;;;;;6.93;4.22;;;;;;;8.59;75.61;150832.25;10379283;28;20092;-72
2023/11/13 11:06:59;;;;;;;5.03;4.53;;;;;;;8.67;75.37;150852.84;10381424;28;20042;-72
2023/11/13 11:12:03;;;;;;;3.33;2.85;;;;;;;8.92;73.93;150914.75;10380212;28;20054;-72
2023/11/13 11:17:25;;;;;;;7.65;5.88;;;;;;;8.96;73.41;150926.34;10380158;28;20045;-72
2023/11/13 11:22:34;;;;;;;2.35;1.33;;;;;;;9.27;72.50;151005.03;10380756;28;20041;-72
2023/11/13 11:27:41;;;;;;;1.77;1.58;;;;;;;9.12;71.29;150965.03;10380137;28;20042;-72
2023/11/13 11:32:53;;;;;;;1.00;0.90;;;;;;;9.11;70.59;150963.72;10379161;28;20046;-71
2023/11/13 11:38:26;;;;;;;1.17;0.88;;;;;;;9.04;71.47;150947.00;10379121;28;20042;-71
2023/11/13 11:43:32;;;;;;;2.08;1.40;;;;;;;8.97;72.48;150928.91;10379457;28;20048;-71
2023/11/13 11:48:35;;;;;;;0.80;0.80;;;;;;;9.26;71.24;151001.16;10378931;28;20034;-71
2023/11/13 11:53:36;;;;;;;1.50;1.23;;;;;;;9.19;72.59;150984.38;10377532;28;20054;-71
2023/11/13 11:58:39;;;;;;;2.70;2.45;;;;;;;9.24;72.31;150995.97;10378295;28;20038;-70
2023/11/13 12:03:42;;;;;;;1.73;0.90;;;;;;;9.29;72.43;151008.88;10378104;28;20461;-71
2023/11/13 12:08:44;;;;;;;1.08;0.80;;;;;;;9.20;71.81;150986.94;10377711;28;20037;-71
2023/11/13 12:13:47;;;;;;;0.65;0.50;;;;;;;9.18;72.52;150981.81;10377457;28;20100;-72
2023/11/13 12:18:48;;;;;;;0.70;0.70;;;;;;;9.19;73.20;150983.09;10376159;28;20557;-72
2023/11/13 12:23:52;;;;;;;1.05;0.70;;;;;;;9.16;73.16;150975.34;10377730;28;20046;-73
2023/11/13 12:28:54;;;;;;;1.25;0.90;;;;;;;9.07;76.32;150954.75;10377235;28;20041;-71
2023/11/13 12:33:56;;;;;;;3.50;0.70;;;;;;;8.93;77.40;150918.59;10376823;28;20496;-72
2023/11/13 12:39:03;;;;;;;1.40;0.90;;;;;;;8.96;77.47;150925.06;10376717;28;20507;-71
2023/11/13 12:44:05;;;;;;;1.00;0.82;;;;;;;8.87;79.14;150903.13;10376397;28;20492;-71
2023/11/13 12:49:11;;;;;;;0.85;0.65;;;;;;;8.92;79.20;150914.75;10377707;28;20042;-71
2023/11/13 12:54:14;;;;;;;0.70;0.60;;;;;;;8.88;79.57;150905.72;10376929;28;20042;-71
2023/11/13 12:59:20;;;;;;;1.27;0.90;;;;;;;8.81;79.42;150887.69;10374796;28;20046;-71
2023/11/13 13:04:22;;;;;;;0.90;0.67;;;;;;;8.58;81.51;150829.63;10374623;28;20141;-71
2023/11/13 13:09:24;;;;;;;2.00;1.20;;;;;;;8.54;82.01;150820.66;10376009;28;20074;-71
2023/11/13 13:14:26;;;;;;;2.20;1.80;;;;;;;8.77;81.71;150878.66;10376130;28;20073;-71
2023/11/13 13:19:31;;;;;;;1.77;1.52;;;;;;;8.86;80.57;150899.28;10375840;28;20482;-71
2023/11/13 13:24:34;;;;;;;2.67;1.90;;;;;;;8.64;79.99;150843.84;10377066;28;20120;-71
2023/11/13 13:29:38;;;;;;;1.83;1.38;;;;;;;8.46;82.86;150798.72;10374014;28;20056;-72
2023/11/13 13:34:40;;;;;;;1.90;1.70;;;;;;;8.25;84.10;150747.09;10373553;28;20160;-71
2023/11/13 13:39:44;;;;;;;1.40;1.30;;;;;;;7.89;86.97;150655.59;10373306;28;20041;-71
2023/11/13 13:44:47;;;;;;;1.88;1.60;;;;;;;7.78;90.80;150627.25;10412672;28;20350;-72
2023/11/13 13:49:50;;;;;;;1.83;1.35;;;;;;;7.91;91.40;150660.75;10417515;28;20064;-72
2023/11/13 13:54:52;;;;;;;1.52;1.35;;;;;;;7.78;93.75;150628.53;10408267;28;20092;-71
2023/11/13 13:59:55;;;;;;;2.50;1.98;;;;;;;7.63;96.59;150589.91;10374124;28;20401;-72
2023/11/13 14:04:56;;;;;;;2.80;1.80;;;;;;;7.54;99.75;150568.00;10374761;28;20042;-72
2023/11/13 14:09:58;;;;;;;3.08;2.47;;;;;;;7.41;100.00;150534.50;10373718;28;20050;-73
2023/11/13 14:15:02;;;;;;;2.90;2.60;;;;;;;7.51;100.00;150558.97;10374064;28;20052;-72
2023/11/13 14:20:14;;;;;;;4.35;3.28;;;;;;;7.47;100.00;150548.66;10374603;28;20050;-72
2023/11/13 14:25:17;;;;;;;2.83;2.20;;;;;;;7.41;100.00;150534.50;10372972;28;20038;-72
2023/11/13 14:30:22;;;;;;;3.03;2.72;;;;;;;7.52;100.00;150561.53;10374169;28;20046;-73
2023/11/13 14:35:28;;;;;;;3.58;3.15;;;;;;;7.22;100.00;150485.59;10373937;28;20104;-73
2023/11/13 14:40:30;;;;;;;3.20;2.60;;;;;;;7.38;100.00;150525.47;10375132;28;20448;-72
2023/11/13 14:45:33;;;;;;;3.67;3.38;;;;;;;7.41;100.00;150534.50;10373894;28;20121;-73
2023/11/13 14:50:35;;;;;;;3.47;3.08;;;;;;;7.51;100.00;150560.25;10373774;28;20042;-73
2023/11/13 14:55:37;;;;;;;4.43;3.92;;;;;;;7.25;100.00;150493.28;10373688;28;20141;-72
2023/11/13 15:00:39;;;;;;;3.97;3.58;;;;;;;7.21;100.00;150482.97;10373205;28;20498;-73
2023/11/13 15:05:40;;;;;;;5.10;4.57;;;;;;;7.30;100.00;150507.47;10372693;28;20049;-72
2023/11/13 15:10:42;;;;;;;5.55;4.95;;;;;;;7.00;100.00;150430.22;10379380;28;20561;-73
2023/11/13 15:15:44;;;;;;;5.93;5.43;;;;;;;6.94;100.00;150414.72;10381457;28;20490;-73
2023/11/13 15:20:47;;;;;;;5.28;4.72;;;;;;;6.91;100.00;150408.31;10380217;28;20361;-74
2023/11/13 15:25:50;;;;;;;6.38;5.80;;;;;;;6.93;100.00;150413.44;10378624;28;20049;-73
2023/11/13 15:30:52;;;;;;;6.65;5.97;;;;;;;6.81;100.00;150383.81;10380216;28;20038;-73
2023/11/13 15:35:54;;;;;;;7.80;6.30;;;;;;;6.82;100.00;150385.16;10379481;28;20076;-73
2023/11/13 15:40:59;;;;;;;10.05;9.05;;;;;;;6.58;100.00;150324.63;10380757;28;20069;-73
2023/11/13 15:46:01;;;;;;;7.28;6.57;;;;;;;6.64;100.00;150338.75;10379260;28;20128;-73
2023/11/13 15:51:03;;;;;;;7.32;6.47;;;;;;;6.71;100.00;150358.09;10378925;28;20477;-73
2023/11/13 15:56:07;;;;;;;8.73;7.13;;;;;;;6.94;100.00;150414.72;10378541;28;20045;-73
2023/11/13 16:01:08;;;;;;;7.25;6.55;;;;;;;6.90;100.00;150404.44;10378360;28;20073;-73
2023/11/13 16:06:14;;;;;;;7.35;6.63;;;;;;;6.73;100.00;150363.25;10376960;28;20405;-73
2023/11/13 16:11:15;;;;;;;8.30;7.45;;;;;;;6.72;100.00;150359.38;10380434;28;20042;-75
2023/11/13 16:16:18;;;;;;;7.78;6.63;;;;;;;6.75;100.00;150367.09;10382356;28;20042;-75
2023/11/13 16:21:20;;;;;;;9.18;6.93;;;;;;;6.56;100.00;150320.78;10381854;28;20038;-74
2023/11/13 16:26:23;;;;;;;7.82;7.13;;;;;;;6.39;100.00;150277.00;10380065;28;20568;-74
2023/11/13 16:31:25;;;;;;;7.20;6.50;;;;;;;6.36;100.00;150269.28;10380135;28;20042;-74
2023/11/13 16:36:27;;;;;;;5.15;4.65;;;;;;;6.51;100.00;150307.91;10383180;28;20127;-73
2023/11/13 16:41:29;;;;;;;4.20;3.28;;;;;;;6.71;100.00;150356.81;10377328;28;20097;-74
2023/11/13 16:46:34;;;;;;;4.38;3.80;;;;;;;6.59;100.00;150327.19;10379226;28;20038;-75
2023/11/13 16:51:36;;;;;;;3.60;3.30;;;;;;;6.72;100.00;150359.38;10379545;28;20034;-73
2023/11/13 16:56:40;;;;;;;3.83;3.22;;;;;;;6.81;100.00;150383.81;10377706;28;20075;-72
2023/11/13 17:01:42;;;;;;;4.15;3.75;;;;;;;6.73;100.00;150361.94;10377519;28;20042;-73
2023/11/13 17:06:44;;;;;;;4.97;4.40;;;;;;;6.83;100.00;150389.00;10377483;28;20502;-72
2023/11/13 17:11:46;;;;;;;4.63;4.22;;;;;;;6.66;100.00;150345.22;10377520;28;20096;-73
2023/11/13 17:16:48;;;;;;;5.43;4.93;;;;;;;6.58;100.00;150325.91;10378568;28;20049;-75
2023/11/13 17:21:51;;;;;;;4.68;4.28;;;;;;;6.42;100.00;150284.75;10378832;28;20080;-73
2023/11/13 17:26:52;;;;;;;5.30;4.80;;;;;;;6.43;100.00;150287.31;10386100;28;20111;-74
2023/11/13 17:31:54;;;;;;;6.78;5.38;;;;;;;6.35;100.00;150265.44;10416858;28;20034;-73
2023/11/13 17:36:57;;;;;;;5.72;5.25;;;;;;;6.57;100.00;150323.34;10391846;28;20385;-73
2023/11/13 17:41:59;;;;;;;5.70;5.20;;;;;;;6.38;100.00;150273.16;10376018;28;20120;-73
2023/11/13 17:47:01;;;;;;;7.00;6.30;;;;;;;6.46;100.00;150295.03;10413585;28;20463;-73
2023/11/13 17:52:05;;;;;;;6.45;5.88;;;;;;;6.50;100.00;150304.03;10417722;28;20113;-73
2023/11/13 17:57:10;;;;;;;6.10;5.60;;;;;;;6.43;100.00;150286.03;10416853;28;20099;-74
2023/11/13 18:02:11;;;;;;;7.78;6.57;;;;;;;6.56;100.00;150320.78;10417854;28;20051;-74
2023/11/13 18:07:13;;;;;;;5.90;5.35;;;;;;;6.30;100.00;150253.84;10418683;28;20042;-74
2023/11/13 18:12:15;;;;;;;5.95;5.43;;;;;;;6.48;100.00;150300.19;10416334;28;20124;-74
2023/11/13 18:17:18;;;;;;;4.80;4.15;;;;;;;6.37;100.00;150271.84;10416517;28;20045;-74
2023/11/13 18:22:20;;;;;;;5.82;4.97;;;;;;;6.55;100.00;150318.22;10416060;28;20046;-73
2023/11/13 18:27:22;;;;;;;5.45;4.88;;;;;;;6.42;100.00;150283.41;10418172;28;20095;-73
2023/11/13 18:32:23;;;;;;;4.28;3.88;;;;;;;6.57;100.00;150322.06;10417681;28;20451;-73
2023/11/13 18:37:27;;;;;;;4.47;3.80;;;;;;;6.60;100.00;150329.78;10385437;28;20042;-73
2023/11/13 18:42:28;;;;;;;5.13;4.63;;;;;;;6.46;100.00;150293.72;10378622;28;20046;-74
2023/11/13 18:47:31;;;;;;;3.95;3.53;;;;;;;6.57;100.00;150322.06;10383506;28;20490;-72
2023/11/13 18:52:33;;;;;;;5.75;5.18;;;;;;;6.65;100.00;150341.38;10383884;28;20477;-73
2023/11/13 18:57:34;;;;;;;4.10;3.70;;;;;;;6.74;100.00;150364.53;10384023;28;20100;-74
2023/11/13 19:02:36;;;;;;;3.25;2.95;;;;;;;6.79;100.00;150378.69;10385836;28;20050;-73
2023/11/13 19:07:38;;;;;;;3.92;3.20;;;;;;;6.79;100.00;150377.41;10382374;28;20045;-75
2023/11/13 19:12:40;;;;;;;3.38;3.03;;;;;;;6.98;100.00;150425.03;10385263;28;20029;-73
2023/11/13 19:17:42;;;;;;;3.17;2.40;;;;;;;7.11;100.00;150457.22;10383210;28;20153;-74
2023/11/13 19:22:45;;;;;;;2.50;2.10;;;;;;;7.32;100.00;150511.31;10384964;28;20060;-74
2023/11/13 19:27:47;;;;;;;1.95;1.80;;;;;;;7.47;100.00;150549.94;10382812;28;20088;-74
2023/11/13 19:32:49;;;;;;;2.22;1.60;;;;;;;7.59;100.00;150579.59;10381378;28;20042;-73
2023/11/13 19:38:02;;;;;;;1.42;1.30;;;;;;;7.70;100.00;150606.63;10380838;28;20088;-71
2023/11/13 19:43:05;;;;;;;1.50;1.40;;;;;;;7.67;100.00;150600.22;10380426;28;20394;-72
2023/11/13 19:48:07;;;;;;;1.92;1.52;;;;;;;7.62;100.00;150586.06;10380564;28;20053;-73
2023/11/13 19:53:09;;;;;;;1.40;1.30;;;;;;;7.60;100.00;150582.16;10380100;28;20133;-72
2023/11/13 19:58:12;;;;;;;1.38;1.27;;;;;;;7.90;100.00;150658.19;10382782;28;20500;-72
2023/11/13 20:03:15;;;;;;;2.35;1.45;;;;;;;7.84;100.00;150642.72;10382549;28;20038;-72
2023/11/13 20:08:17;;;;;;;3.05;1.30;;;;;;;7.75;100.00;150620.84;10366918;28;20060;-72
2023/11/13 20:13:19;;;;;;;1.77;1.60;;;;;;;7.75;100.00;150619.53;10379841;28;20104;-72
2023/11/13 20:18:22;;;;;;;2.00;1.63;;;;;;;7.75;100.00;150620.84;10380555;28;20129;-73
2023/11/13 20:23:37;;;;;;;1.65;1.48;;;;;;;7.70;100.00;150607.97;10381090;28;20072;-71
2023/11/13 20:28:40;;;;;;;2.17;1.98;;;;;;;7.90;100.00;150656.91;10380068;28;20485;-72
2023/11/13 20:33:42;;;;;;;3.10;2.25;;;;;;;8.03;100.00;150690.41;10379799;28;20046;-72
2023/11/13 20:38:44;;;;;;;0.40;0.40;;;;;;;9.54;100.00;151073.38;10380287;28;20088;-72
2023/11/13 20:43:46;;;;;;;0.20;0.20;;;;;;;10.60;100.00;151341.91;10380061;28;20144;-74
2023/11/13 20:48:48;;;;;;;0.28;0.20;;;;;;;11.45;100.00;151556.31;10379459;28;20077;-73
2023/11/13 20:53:50;;;;;;;0.43;0.20;;;;;;;11.52;100.00;151573.13;10381657;28;20049;-74
2023/11/13 20:58:52;;;;;;;0.57;0.10;;;;;;;11.66;100.00;151608.00;10379288;28;20068;-75
2023/11/13 21:03:54;;;;;;;0.13;0.10;;;;;;;11.85;100.00;151657.13;10379904;28;20116;-75
2023/11/13 21:08:56;;;;;;;0.43;0.10;;;;;;;11.77;100.00;151636.41;10363203;28;20049;-75
2023/11/13 21:13:58;;;;;;;0.38;0.10;;;;;;;11.80;100.00;151644.19;10380326;28;20095;-76
2023/11/13 21:19:00;;;;;;;0.00;0.00;;;;;;;11.83;100.00;151652.00;10377652;28;20049;-74
2023/11/13 21:24:09;;;;;;;1.02;0.10;;;;;;;11.89;100.00;151667.47;10379485;28;20100;-74
2023/11/13 21:29:10;;;;;;;0.10;0.10;;;;;;;12.12;100.00;151726.94;10376665;28;20041;-74
2023/11/13 21:34:12;;;;;;;0.20;0.10;;;;;;;12.09;100.00;151717.91;10375658;28;20054;-75
2023/11/13 21:39:15;;;;;;;0.10;0.10;;;;;;;12.24;100.00;151755.38;10375578;28;20068;-75
2023/11/13 21:44:17;;;;;;;0.45;0.13;;;;;;;12.14;100.00;151729.56;10375290;28;20046;-73
2023/11/13 21:49:20;;;;;;;0.65;0.20;;;;;;;12.30;100.00;151772.16;10377189;28;20441;-74
2023/11/13 21:54:22;;;;;;;0.30;0.10;;;;;;;12.27;100.00;151764.44;10374785;28;20046;-74
2023/11/13 21:59:24;;;;;;;0.45;0.17;;;;;;;12.14;100.00;151729.56;10376594;28;20069;-74
2023/11/13 22:04:26;;;;;;;0.43;0.10;;;;;;;12.06;100.00;151711.44;10375400;28;20053;-73
2023/11/13 22:09:31;;;;;;;0.50;0.20;;;;;;;11.93;100.00;151677.84;10377341;28;20053;-74
2023/11/13 22:14:33;;;;;;;0.10;0.08;;;;;;;11.84;100.00;151654.56;10376923;28;20052;-74
2023/11/13 22:19:34;;;;;;;0.73;0.20;;;;;;;12.01;98.46;151697.22;10383938;28;20121;-74
2023/11/13 22:24:37;;;;;;;0.95;0.20;;;;;;;12.13;94.00;151728.25;10386982;28;20053;-74
2023/11/13 22:29:39;;;;;;;0.65;0.10;;;;;;;12.03;91.98;151703.66;10387422;28;20042;-74
2023/11/13 22:34:41;;;;;;;8.68;0.22;;;;;;;12.00;92.28;151695.94;10386202;28;20069;-74
2023/11/13 22:39:43;;;;;;;0.77;0.20;;;;;;;11.67;94.10;151610.56;10386558;28;20046;-75
2023/11/13 22:44:45;;;;;;;0.95;0.30;;;;;;;11.81;92.46;151648.03;10383536;28;20471;-74
2023/11/13 22:49:46;;;;;;;0.25;0.20;;;;;;;11.76;88.56;151635.13;10385500;28;20034;-74
2023/11/13 22:54:51;;;;;;;1.13;0.22;;;;;;;11.85;87.37;151657.13;10381057;28;20108;-74
2023/11/13 22:59:53;;;;;;;1.38;0.30;;;;;;;11.96;87.44;151684.31;10381776;28;20037;-74
2023/11/13 23:04:56;;;;;;;0.45;0.20;;;;;;;11.91;89.07;151672.69;10381219;28;20046;-75
2023/11/13 23:09:58;;;;;;;0.63;0.20;;;;;;;11.86;90.79;151659.72;10382789;28;20050;-75
2023/11/13 23:14:59;;;;;;;0.10;0.10;;;;;;;11.48;95.13;151562.78;10381669;28;20100;-75
2023/11/13 23:20:04;;;;;;;0.70;0.15;;;;;;;11.50;99.96;151567.94;10380872;28;20061;-76
2023/11/13 23:25:08;;;;;;;0.20;0.10;;;;;;;11.43;100.00;151551.16;10380674;28;20097;-76